Главная страница
METAR-TAF:

METAR-TAF

Аэропорты :

Бурленге, Швеция

широта: 60-26N, долгота: 015-31E, высота над уровнем моря: 145 м

Текущие метеонаблюдения

Эта сводка был подготовлена 30 минут назад, в 21:20 UTC
Ветер 4 Узел от западный-юго-западный
Температура 1°C
Влажность 75%
Давление 1005 hPa
Видимость 10 км и более

METAR: ESSD 072120Z AUTO 25004KT 9999 NCD 01/M03 Q1005

Время: 23:50 (21:50 UTC)

Прогноз

Эта сводка был подготовлена 10 часа и 20 минут назад, в 11:30 UTC
Прогноз действительный с 07-го 12 UTC до 07-го 16 UTC
Ветер 6 Узел от северно-северо-западный
Видимость 10 км и более
Нет облачности ниже 1500 м, и нет кучево-дождевой облачности
Вероятность 40%
С 07-го 12 UTC до 07-го 14 UTC
Отдельные облака на высоте 4000 фута, Кучево-дождевые.

TAF: ESSD 071130Z 0712/0716 34006KT CAVOK PROB40 0712/0714 SCT040CB

Метеонаблюдения и прогнозы для более 4000 аэропортов (сводки METAR и TAF).

Имеющиеся станции представлены на карте желтыми и красными точками.

Чтобы увидеть название станции, наведите на нее мышь.

Затем щелкните, чтобы увидеть метеонаблюдения и метеопрогнозы.

Управление картой: чтобы увеличить масштаб, щелкните зеленые кнопки с черным крестиком; чтобы уменьшить масштаб, щелкните зеленую кнопку с тире; для просмотра соседних карт щелкайте зеленые стрелки.


METAR-TAF: